Peshtigo, Wisconsin
Current Conditions -  °F | °C
As of 6:35 PM on Monday 24 Nov 2014 (Local Time) from KMNM Reporting Station
Overcast Overcast  
Wind Chill: 14°   Ceiling: 800
Heat Index: 27°   Visibility: 1.2mi
Dew Point: 25°   Wind: 17mph
Humidity: 93%   Direction: 350°N
Pressure: 29.4"   Gusts: 23mph
Location:  45.05°N, 87.75°W
Report Text: KMNM 250035Z AUTO 35015G20KT 1 1/4SM OVC008 M03/M04 A2940 RMK AO1
Loading
Personal Weather Stations






























Interactive Weather Map New forecast layout! Learn more

10-Day Weather Forecast

Advertisements
Track Severe Weather on mobile